logo
App data

Poöf

Poöf has been tricked by accepting a golden laying kitten. But the precious kitty makes all the greedy monsters envious. Survive waves of monsters trying to steal your revenue!Poöf vs the cursed kitty is a mix between tower defense, and platforming action, a game focused on hardcore gameplay, tight controls and choices, inspired by games...
Store | Hub | SteamDB
Developer: Arkedo Publisher: Neko Entertainment
Genre: Action, Indie, Strategy
Languages: English
Tags: Indie (32), Action (31), Strategy (29), Platformer (17), Tower Defense (15)
Category: Single-player, Steam Achievements, Full controller support, Steam Trading Cards, Steam Leaderboards
Release date: Nov 8, 2013
Price: $6.99
Old userscore: 77% Owners: 20,000 .. 50,000
Followers: 329
Peak concurrent players yesterday: 1
Playtime total: 01:19 (average) 01:19 (median)

Steam Spy is still in beta, so expect major bugs.

Owners data:

Access restricted.

This feature is only available to users with special access rights. Sorry.

If you want to proceed, you need to register or log in first and then back Steam Spy on Patreon. Look for Indie or Pro pledge.

Don't forget to use the same email as on Steam Spy!

If you've recently backed Steam Spy on Patreon, please note, that it might take around 15 minutes for your access rights to sync. In most cases you'll need to re-login on Steam Spy too.

Audience in 2 weeks:

Access restricted.

This feature is only available to users with special access rights. Sorry.

If you want to proceed, you need to register or log in first and then back Steam Spy on Patreon. Look for Indie or Pro pledge.

Don't forget to use the same email as on Steam Spy!

If you've recently backed Steam Spy on Patreon, please note, that it might take around 15 minutes for your access rights to sync. In most cases you'll need to re-login on Steam Spy too.

Peak daily concurrent players:

CCU data courtesy of SteamDB. Used with permission.

Hourly concurrent players:

Followers over time

Access restricted.

This feature is only available to users with special access rights. Sorry.

If you want to proceed, you need to register or log in first and then back Steam Spy on Patreon. Look for Indie or Pro pledge.

Don't forget to use the same email as on Steam Spy!

If you've recently backed Steam Spy on Patreon, please note, that it might take around 15 minutes for your access rights to sync. In most cases you'll need to re-login on Steam Spy too.

Views for top 50 videos on YouTube for this game:

Games similar to this one:

# Game Release date
Price
Score rank
(Userscore / Metascore)
Owners
Players
Playtime (Median)
1 DashBored Jun 13, 2016 $4.99N/A (N/A)20,000 .. 50,0000%00:00 (00:00)
2 Starship Annihilator Sep 2, 2016 $0.99N/A (N/A)20,000 .. 50,0000%00:00 (00:00)
3 Robot Legions Reborn Jul 19, 2016 $2.99N/A (N/A)20,000 .. 50,0000%00:00 (00:00)
4 Deisim Dec 19, 2016 $7.99N/A (N/A)20,000 .. 50,00033.33%00:18 (00:09)
5 Alteric Jul 13, 2016 $3.99N/A (N/A)20,000 .. 50,0000%00:00 (00:00)
6 The Gleam: VR Escape the Room Oct 14, 2016 $3.99N/A (N/A)100,000 .. 200,0000%00:00 (00:00)
7 You Deserve Aug 19, 2016 $0.99N/A (N/A)20,000 .. 50,0000%00:00 (00:00)
8 Please, Don't Touch Anything 3D Dec 7, 2016 $9.99N/A (N/A)20,000 .. 50,0000%00:00 (00:00)
9 Dinosaur Forest May 17, 2017 $1.99N/A (N/A)50,000 .. 100,0000%00:00 (00:00)
10 mr.President Prologue Episode Sep 20, 2016 $0.99N/A (N/A)20,000 .. 50,0000%00:00 (00:00)
11 Joana's Life Sep 1, 2016 $5.99N/A (N/A)50,000 .. 100,0000%00:00 (00:00)
12 BoomTown! Deluxe Oct 14, 2016 $1.99N/A (N/A)20,000 .. 50,0000%00:00 (00:00)
13 Pinkman Jan 16, 2017 $0.99N/A (N/A)0 .. 20,0000%00:00 (00:00)
14 Pixel Gladiator Sep 8, 2017 $4.99N/A (N/A)20,000 .. 50,0000%00:00 (00:00)
15 Intensive Exposure Sep 6, 2016 $4.99N/A (N/A)0 .. 20,0000%00:00 (00:00)
16 Snake Pass Mar 28, 2017 $19.99N/A (N/A/71%)200,000 .. 500,0000%00:00 (00:00)
17 It Comes Around - A Kinetic Novel Sep 29, 2016 $2.99N/A (N/A)20,000 .. 50,0000%00:00 (00:00)
18 OTTTD Aug 6, 2014 $7.99N/A (N/A)50,000 .. 100,0000%00:00 (00:00)
19 Super Life of Pixel Dec 20, 2018 $9.99N/A (N/A)20,000 .. 50,0000%00:00 (00:00)
20 The Masterplan Jun 4, 2015 $19.99N/A (N/A/68%)100,000 .. 200,0000%00:00 (00:00)
21 The Deer God Feb 27, 2015 $14.99N/A (N/A/59%)20,000 .. 50,0000%00:00 (00:00)
22 Amazing Princess Sarah Aug 18, 2014 $4.99N/A (N/A)0 .. 20,0000%00:00 (00:00)
23 Pix the Cat Jan 29, 2015 $9.99N/A (N/A/77%)50,000 .. 100,0000%00:00 (00:00)
24 Velocibox Sep 8, 2014 $4.99N/A (N/A)50,000 .. 100,0000%00:00 (00:00)
25 Tulpa Jan 29, 2015 $2.99N/A (N/A)20,000 .. 50,0000%00:00 (00:00)
26 Squishy the Suicidal Pig Oct 23, 2014 $5.99N/A (N/A)200,000 .. 500,0000%00:00 (00:00)
27 Phoenix Force Nov 13, 2014 $0.99N/A (N/A)50,000 .. 100,0000%00:00 (00:00)
28 Ninja Pizza Girl Sep 30, 2015 $0.69N/A (N/A/82%)50,000 .. 100,0000%00:00 (00:00)
29 Marvin's Mittens Dec 17, 2014 $5.99N/A (N/A)0 .. 20,0000%00:00 (00:00)
30 Cavern Kings Sep 30, 2014 $9.99N/A (N/A)20,000 .. 50,0000%00:00 (00:00)
31 Dwarf Tower May 5, 2014 $0.99N/A (N/A)20,000 .. 50,0000%00:00 (00:00)
32 iO Dec 5, 2014 $4.99N/A (N/A)50,000 .. 100,0000%00:00 (00:00)
33 Ephemerid: A Musical Adventure Feb 3, 2015 $1.99N/A (N/A)20,000 .. 50,0000%00:00 (00:00)
34 Horizon Shift May 29, 2015 $0.99N/A (N/A)100,000 .. 200,0000%00:00 (00:00)
35 Critter Crunch Sep 11, 2012 $6.99N/A (N/A)50,000 .. 100,0000%00:00 (00:00)
36 Party of Sin Dec 13, 2012 $5.99N/A (N/A)50,000 .. 100,0000%00:00 (00:00)
37 BIT.TRIP BEAT Nov 2, 2010 $9.99N/A (N/A)200,000 .. 500,0000%00:00 (00:00)
38 Home Jun 1, 2012 $4.99N/A (N/A/69%)200,000 .. 500,0000%00:00 (00:00)
39 Super Splatters Jun 26, 2013 N/AN/A (N/A/73%)50,000 .. 100,0000%00:00 (00:00)
40 Ultratron Mar 18, 2013 $9.99N/A (N/A)100,000 .. 200,0000%00:00 (00:00)
41 Ms. Splosion Man Apr 3, 2013 $9.99N/A (N/A)20,000 .. 50,0000%00:00 (00:00)
42 Cargo Commander Nov 1, 2012 $1.99N/A (N/A)100,000 .. 200,0000%00:00 (00:00)
43 SOL: Exodus Jan 25, 2012 $7.99N/A (N/A/57%)50,000 .. 100,0000%00:00 (00:00)
44 Puddle Nov 9, 2012 $7.99N/A (N/A)50,000 .. 100,0000%00:00 (00:00)
45 Titan Attacks! Feb 3, 2012 $9.99N/A (N/A)50,000 .. 100,0000%00:00 (00:00)
46 Retro/Grade Mar 20, 2013 $9.99N/A (N/A)50,000 .. 100,0000%00:00 (00:00)
47 Tales From Space: Mutant Blobs Attack Aug 15, 2012 $9.99N/A (N/A/83%)100,000 .. 200,0000%00:00 (00:00)
48 Papo & Yo Apr 18, 2013 $14.99N/A (N/A/70%)200,000 .. 500,0000%00:00 (00:00)
49 Unmechanical Aug 8, 2012 $9.99N/A (N/A/74%)100,000 .. 200,0000%00:00 (00:00)
50 Dream Jul 31, 2015 $1.79N/A (N/A/59%)50,000 .. 100,0000%00:00 (00:00)
51 Sugar Cube: Bittersweet Factory Nov 7, 2012 $6.99N/A (N/A)20,000 .. 50,0000%00:00 (00:00)
52 Monolith Jun 7, 2017 $7.99N/A (N/A/83%)100,000 .. 200,0000%00:00 (00:00)
53 Wayout Nov 4, 2016 $0.99N/A (N/A)50,000 .. 100,0009.09%00:03 (00:01)
54 Guns of Icarus Alliance Mar 31, 2017 $4.99N/A (N/A)100,000 .. 200,0000%00:00 (00:00)
55 Zolg Dec 2, 2016 $0.99N/A (N/A)20,000 .. 50,0000%00:00 (00:00)
56 The Archotek Project Apr 28, 2017 $0.99N/A (N/A)200,000 .. 500,0000%00:00 (00:00)
57 Witch It Oct 22, 2020 $19.99N/A (N/A)200,000 .. 500,0002.08%02:55 (00:58)
58 Introvert Quest Mar 15, 2017 $4.99N/A (N/A)100,000 .. 200,0000%00:00 (00:00)
59 Distant Space Dec 20, 2016 $0.99N/A (N/A)100,000 .. 200,0000%00:00 (00:00)
60 Child Phobia: Nightcoming Fears Dec 20, 2016 $1.99N/A (N/A)20,000 .. 50,0000%00:00 (00:00)
61 Mistwood Heroes Dec 30, 2016 $0.99N/A (N/A)20,000 .. 50,0000%00:00 (00:00)
62 GORN Jul 18, 2019 $19.99N/A (N/A/85%)200,000 .. 500,0003.03%05:09 (01:43)
63 Chronicles of a Dark Lord: Episode 1 Tides of Fate Complete Dec 19, 2014 N/AN/A (N/A)50,000 .. 100,0000%00:00 (00:00)
64 Orbit HD Mar 18, 2015 $1.99N/A (N/A)20,000 .. 50,0000%00:00 (00:00)
65 Bermuda Mar 17, 2015 $2.99N/A (N/A)50,000 .. 100,0000%00:00 (00:00)
66 Inside My Radio May 11, 2015 $2.99N/A (N/A/68%)20,000 .. 50,0000%00:00 (00:00)
67 Glorkian Warrior: The Trials Of Glork Mar 24, 2015 $3.99N/A (N/A)20,000 .. 50,0000%00:00 (00:00)
68 Luckslinger Jul 16, 2015 $9.99N/A (N/A/76%)20,000 .. 50,0000%00:00 (00:00)
69 Countless Rooms of Death Feb 20, 2014 $0.99N/A (N/A)20,000 .. 50,0000%00:00 (00:00)
70 Canabalt Apr 30, 2015 $1.19N/A (N/A)20,000 .. 50,0000%00:00 (00:00)
71 It came from space and ate our brains Mar 19, 2015 $14.99N/A (N/A)200,000 .. 500,0000%00:00 (00:00)
72 Hare In The Hat Apr 1, 2015 $0.69N/A (N/A)50,000 .. 100,0000%00:00 (00:00)
73 Rats - Time is running out! Aug 19, 2015 $2.74N/A (N/A)20,000 .. 50,0000%00:00 (00:00)
74 Spellsworn Mar 13, 2018 FreeN/A (N/A)200,000 .. 500,0000%00:00 (00:00)
75 Copy Kitty Apr 19, 2018 $14.99N/A (N/A)0 .. 20,0000%00:00 (00:00)
76 Luna Sky Oct 2, 2015 $12.99N/A (N/A)50,000 .. 100,0000%00:00 (00:00)
77 NEO AQUARIUM - The King of Crustaceans - Jun 8, 2015 $1.79N/A (N/A)50,000 .. 100,0000%00:00 (00:00)
78 Tobari and the Night of the Curious Moon Aug 11, 2012 $9.99N/A (N/A)0 .. 20,0000%00:00 (00:00)
79 Beyond Eyes Aug 11, 2015 $2.99N/A (N/A/60%)100,000 .. 200,0000%00:00 (00:00)
80 Polyball Dec 1, 2017 $14.99N/A (N/A)20,000 .. 50,0000%00:00 (00:00)
81 RETSNOM Jul 23, 2015 $1.69N/A (N/A)0 .. 20,0000%00:00 (00:00)
82 Season of 12 Colors Mar 14, 2016 $2.99N/A (N/A)20,000 .. 50,0000%00:00 (00:00)
83 Dead In Bermuda Aug 27, 2015 $3.74N/A (N/A)20,000 .. 50,0000%00:00 (00:00)
84 Shoot 1UP Sep 23, 2015 $1.19N/A (N/A)20,000 .. 50,0000%00:00 (00:00)
85 Aviary Attorney Dec 21, 2015 $14.99N/A (N/A/77%)50,000 .. 100,0000%00:00 (00:00)
86 Football, Tactics & Glory Jun 1, 2018 $24.99N/A (N/A)100,000 .. 200,0000%00:00 (00:00)
87 none Nov 4, 2015 N/AN/A (N/A)20,000 .. 50,0000%00:00 (00:00)
88 The Adventures of Mr. Bobley Jun 30, 2015 $0.99N/A (N/A)100,000 .. 200,0000%00:00 (00:00)
89 Earth Overclocked Dec 4, 2015 $4.99N/A (N/A)20,000 .. 50,0000%00:00 (00:00)
90 Monument Jun 5, 2015 $0.49N/A (N/A)20,000 .. 50,0000%00:00 (00:00)
91 iZBOT Sep 1, 2015 $11.99N/A (N/A)20,000 .. 50,0000%00:00 (00:00)
92 Western Press Apr 21, 2016 $4.99N/A (N/A)20,000 .. 50,0000%00:00 (00:00)
93 Redemption: Eternal Quest Aug 28, 2015 $1.19N/A (N/A)100,000 .. 200,0000%00:00 (00:00)
94 Action Alien Jun 26, 2015 $1.79N/A (N/A)50,000 .. 100,0000%00:00 (00:00)
95 Void Invaders Aug 14, 2015 $0.5N/A (N/A)20,000 .. 50,0000%00:00 (00:00)
96 8Bit Fiesta - Party Game Sep 30, 2016 FreeN/A (N/A)20,000 .. 50,0000%00:00 (00:00)
97 Bad Hotel Oct 16, 2013 $4.99N/A (N/A)50,000 .. 100,0000%00:00 (00:00)
98 Omegalodon Mar 9, 2012 $9.99N/A (N/A)20,000 .. 50,0000%00:00 (00:00)
99 Godus $14.99N/A (N/A)50,000 .. 100,0000%00:00 (00:00)
100 Escape Goat Jun 14, 2012 $4.99N/A (N/A)50,000 .. 100,0000%00:00 (00:00)
101 Wake $4.99N/A (N/A)0 .. 20,0000%00:00 (00:00)
102 Gravity Ghost Jan 26, 2015 $14.99N/A (N/A/75%)0 .. 20,0000%00:00 (00:00)
103 Zack Zero Apr 29, 2013 $2.99N/A (N/A)20,000 .. 50,0000%00:00 (00:00)
104 Solar Flux Oct 24, 2013 $9.99N/A (N/A)100,000 .. 200,0000%00:00 (00:00)
105 Element4l May 24, 2013 $8.99N/A (N/A/77%)50,000 .. 100,0000%00:00 (00:00)
106 FOTONICA Nov 6, 2014 $14.99N/A (N/A/71%)50,000 .. 100,0000%00:00 (00:00)
107 Intake Nov 5, 2013 $9.99N/A (N/A)20,000 .. 50,0000%00:00 (00:00)
108 Gentlemen! Nov 5, 2013 $4.99N/A (N/A)20,000 .. 50,0000%00:00 (00:00)
109 Super Puzzle Platformer Deluxe May 24, 2013 $7.99N/A (N/A)20,000 .. 50,0000%00:00 (00:00)
110 Escape Goat 2 Mar 24, 2014 $9.99N/A (N/A/76%)50,000 .. 100,0000%00:00 (00:00)
111 The Novelist Dec 10, 2013 $4.99N/A (N/A/66%)100,000 .. 200,0000%00:00 (00:00)
112 Survivor Squad Nov 8, 2013 $2.99N/A (N/A)100,000 .. 200,0000%00:00 (00:00)
113 Knytt Underground Oct 25, 2013 $6.99N/A (N/A)50,000 .. 100,0000%00:00 (00:00)
114 Blaster Shooter GunGuy! Aug 10, 2015 $0.99N/A (N/A)50,000 .. 100,0000%00:00 (00:00)
115 Morphine Oct 26, 2015 $2.99N/A (N/A)50,000 .. 100,0000%00:00 (00:00)
116 Wild Island Quest Sep 4, 2015 $0.49N/A (N/A)50,000 .. 100,0000%00:00 (00:00)
117 Days Under Custody Nov 23, 2015 $4.99N/A (N/A)20,000 .. 50,0000%00:00 (00:00)
118 Kitchen Simulator 2015 Sep 4, 2015 $0.69N/A (N/A)20,000 .. 50,0000%00:00 (00:00)
119 Godus Wars Feb 3, 2016 $14.99N/A (N/A)20,000 .. 50,0000%00:00 (00:00)
120 Press X to Not Die Oct 6, 2017 $2.99N/A (N/A)100,000 .. 200,0000%00:00 (00:00)
121 Bell Ringer Mar 6, 2016 $6.99N/A (N/A)200,000 .. 500,0000%00:00 (00:00)
122 Club Life Apr 13, 2016 $12.99N/A (N/A)0 .. 20,0000%00:00 (00:00)
123 Tiny Guardians Mar 24, 2016 $9.99N/A (N/A)0 .. 20,0000%00:00 (00:00)
124 1,000 Heads Among the Trees Dec 11, 2015 $4.99N/A (N/A)100,000 .. 200,0000%00:00 (00:00)
125 Doodle Kingdom Jun 9, 2016 $8.99N/A (N/A)50,000 .. 100,0000%00:00 (00:00)
126 Dream Factory Nov 2, 2015 $9.99N/A (N/A)20,000 .. 50,0000%00:00 (00:00)
127 10 Second Ninja X Jul 19, 2016 $9.99N/A (N/A)200,000 .. 500,0000.82%00:02 (00:00)
128 Fist Slash: Of Ultimate Fury Dec 10, 2015 $3.99N/A (N/A)0 .. 20,0000%00:00 (00:00)
129 Empire of the Gods May 13, 2008 $1.99N/A (N/A)50,000 .. 100,0000%00:00 (00:00)
130 Perraw - FPS Clone War Alpha Jan 29, 2016 $0.99N/A (N/A)0 .. 20,0000%00:00 (00:00)
131 10 Second Ninja Mar 5, 2014 $1.99N/A (N/A/72%)50,000 .. 100,0000%00:00 (00:00)
132 Ballpoint Universe - Infinite Dec 17, 2013 $3.99N/A (N/A)50,000 .. 100,0000%00:00 (00:00)
133 Labyrinthine Dreams May 26, 2015 $0.49N/A (N/A)20,000 .. 50,0000%00:00 (00:00)
134 STARWHAL Sep 29, 2014 $11.99N/A (N/A)20,000 .. 50,0000%00:00 (00:00)
135 Imagine Earth Jan 20, 2021 $19.99N/A (N/A)20,000 .. 50,0000%00:00 (00:00)
136 Full Bore May 6, 2014 $14.99N/A (N/A/72%)0 .. 20,0000%00:00 (00:00)
137 Munin Jun 10, 2014 $4.99N/A (N/A/68%)200,000 .. 500,0000%00:00 (00:00)
138 A-Men Jan 25, 2014 $9.99N/A (N/A)0 .. 20,0000%00:00 (00:00)
139 Rabbit Hole 3D: Steam Edition Apr 25, 2014 $2.99N/A (N/A)50,000 .. 100,0000%00:00 (00:00)
140 Imagine Me Mar 14, 2014 $2.99N/A (N/A)20,000 .. 50,0000%00:00 (00:00)
141 ReignMaker Apr 16, 2014 $14.99N/A (N/A)50,000 .. 100,0000%00:00 (00:00)
142 Procyon Feb 26, 2014 $3.99N/A (N/A)20,000 .. 50,0000%00:00 (00:00)
143 Actual Sunlight Apr 3, 2014 $4.99N/A (N/A/77%)50,000 .. 100,0000%00:00 (00:00)
144 Montas Mar 24, 2014 $9.99N/A (N/A)0 .. 20,0000%00:00 (00:00)
145 Volt Apr 14, 2014 $0.99N/A (N/A)100,000 .. 200,0000%00:00 (00:00)
146 Jones On Fire Mar 14, 2013 $2.99N/A (N/A)50,000 .. 100,0000%00:00 (00:00)
147 Montague's Mount Nov 19, 2013 $4.99N/A (N/A/39%)20,000 .. 50,0000%00:00 (00:00)
148 Mindless Running Feb 22, 2016 $0.99N/A (N/A)20,000 .. 50,0000%00:00 (00:00)
149 Wrath of Anna Apr 2, 2018 $19.99N/A (N/A)50,000 .. 100,0000%00:00 (00:00)
150 Mimpi Dreams Mar 22, 2016 FreeN/A (N/A)20,000 .. 50,0000%00:00 (00:00)
151 Trouble Witches Origin - Episode1 Daughters of Amalgam - Nov 21, 2016 $9.99N/A (N/A)0 .. 20,0000%00:00 (00:00)
152 Bunker Punks May 28, 2018 $14.99N/A (N/A)0 .. 20,0000%00:00 (00:00)
153 NORTH Apr 27, 2016 $1.99N/A (N/A)200,000 .. 500,0000%00:00 (00:00)
154 Share May 3, 2016 $0.99N/A (N/A)20,000 .. 50,0000%00:00 (00:00)
155 New Retro Arcade: Neon Nov 19, 2019 $19.99N/A (N/A)0 .. 20,0000%00:00 (00:00)
156 Yon Paradox May 6, 2016 $2.99N/A (N/A)0 .. 20,0000%00:00 (00:00)
157 Can't Drive This Sep 25, 2016 $19.99N/A (N/A)0 .. 20,0000%00:00 (00:00)
158 Brute May 17, 2017 $6.99N/A (N/A)0 .. 20,0000%00:00 (00:00)
159 Scanner Sombre Apr 26, 2017 $5.99N/A (N/A/67%)100,000 .. 200,0000%00:00 (00:00)
160 Hero Quest: Tower Conflict Apr 13, 2016 $0.99N/A (N/A)200,000 .. 500,0000%00:00 (00:00)
161 Star Drifter Jun 1, 2016 $0.99N/A (N/A)500,000 .. 1,000,0000%00:00 (00:00)
162 CrazyCars3D Mar 28, 2016 $2.99N/A (N/A)50,000 .. 100,0000%00:00 (00:00)
163 Super Duper Party Pooper Jun 6, 2016 $0.99N/A (N/A/40%)100,000 .. 200,0000%00:00 (00:00)
164 Domino Sky Apr 5, 2016 $3.99N/A (N/A)50,000 .. 100,0000%00:00 (00:00)
165 Three Dead Zed Jul 7, 2014 $5.99N/A (N/A)50,000 .. 100,0000%00:00 (00:00)
166 Ballad of Solar Apr 18, 2013 $6.99N/A (N/A)0 .. 20,0000%00:00 (00:00)
167 Uriel's Chasm Sep 12, 2014 $4.99N/A (N/A)200,000 .. 500,0000%00:00 (00:00)
168 Boson X Sep 15, 2014 $2.99N/A (N/A)50,000 .. 100,0000%00:00 (00:00)
169 Cosmochoria Apr 27, 2015 $9.99N/A (N/A)20,000 .. 50,0000%00:00 (00:00)
170 TRISTOY Jan 15, 2015 $6.99N/A (N/A/49%)20,000 .. 50,0000%00:00 (00:00)
171 Road Not Taken Aug 5, 2014 $14.99N/A (N/A/75%)50,000 .. 100,0000%00:00 (00:00)
172 Echo of the Wilds Jun 10, 2014 $6.99N/A (N/A)0 .. 20,0000%00:00 (00:00)
173 Dreaming Sarah Mar 12, 2015 $5.99N/A (N/A)200,000 .. 500,0000%00:00 (00:00)
174 Oblitus Feb 27, 2015 $14.99N/A (N/A/69%)20,000 .. 50,0000%00:00 (00:00)
175 Captain Forever Remix Jun 3, 2016 $9.99N/A (N/A)0 .. 20,0000%00:00 (00:00)
176 Curses 'N Chaos Aug 18, 2015 $9.99N/A (N/A)20,000 .. 50,0000%00:00 (00:00)
177 Frederic: Resurrection of Music May 16, 2014 $2.99N/A (N/A)100,000 .. 200,0000%00:00 (00:00)
178 Back to Bed Aug 6, 2014 $5.99N/A (N/A)500,000 .. 1,000,0000%00:00 (00:00)
179 Frederic: Evil Strikes Back May 23, 2014 $7.99N/A (N/A)50,000 .. 100,0000%00:00 (00:00)
180 NEON STRUCT May 20, 2015 $1.79N/A (N/A/62%)50,000 .. 100,0000%00:00 (00:00)
181 Rhythm Destruction Jun 16, 2014 $4.99N/A (N/A)50,000 .. 100,0000%00:00 (00:00)

Tags over time:

Access restricted.

This feature is only available to users with special access rights. Sorry.

If you want to proceed, you need to register or log in first and then back Steam Spy on Patreon. Look for Indie or Pro pledge.

Don't forget to use the same email as on Steam Spy!

If you've recently backed Steam Spy on Patreon, please note, that it might take around 15 minutes for your access rights to sync. In most cases you'll need to re-login on Steam Spy too.

Owners of this game also own:

Access restricted.

This feature is only available to users with special access rights. Sorry.

If you want to proceed, you need to register or log in first and then back Steam Spy on Patreon. Look for Indie or Pro pledge.

Don't forget to use the same email as on Steam Spy!

If you've recently backed Steam Spy on Patreon, please note, that it might take around 15 minutes for your access rights to sync. In most cases you'll need to re-login on Steam Spy too.

Playtime distribution:

Access restricted.

This feature is only available to users with special access rights. Sorry.

If you want to proceed, you need to register or log in first and then back Steam Spy on Patreon. Look for Indie or Pro pledge.

Don't forget to use the same email as on Steam Spy!

If you've recently backed Steam Spy on Patreon, please note, that it might take around 15 minutes for your access rights to sync. In most cases you'll need to re-login on Steam Spy too.

Playtime (2 weeks):

Access restricted.

This feature is only available to users with special access rights. Sorry.

If you want to proceed, you need to register or log in first and then back Steam Spy on Patreon. Look for Indie or Pro pledge.

Don't forget to use the same email as on Steam Spy!

If you've recently backed Steam Spy on Patreon, please note, that it might take around 15 minutes for your access rights to sync. In most cases you'll need to re-login on Steam Spy too.

User reviews:

Login required.

Please register or log in to see this information.